Time;durP1;ratioP1;P1;durP2;ratioP2;P2;SDS_P1;SDS_P2;PMS_P1;PMS_P2;Temp;Humidity;BMP_temperature;BMP_pressure;BME280_temperature;BME280_humidity;BME280_pressure;Samples;Min_cycle;Max_cycle;Signal;HPM_P1;HPM_P2
2021/01/09 00:02:49;;;;;;;22.90;14.20;;;1.70;99.90;;;;;;6032236;23;20868;-80
2021/01/09 00:05:41;;;;;;;21.57;13.10;;;1.60;99.90;;;;;;5942386;24;20346;-80
2021/01/09 00:08:06;;;;;;;21.23;13.70;;;1.70;99.90;;;;;;5862743;24;20397;-80
2021/01/09 00:10:32;;;;;;;22.70;13.27;;;1.80;99.90;;;;;;5864136;24;20422;-80
2021/01/09 00:12:58;;;;;;;19.63;14.50;;;1.80;99.90;;;;;;5870401;24;20202;-80
2021/01/09 00:15:26;;;;;;;22.03;14.70;;;1.80;99.90;;;;;;5897235;24;20385;-81
2021/01/09 00:17:53;;;;;;;21.10;15.20;;;1.90;99.90;;;;;;5941442;24;20339;-81
2021/01/09 00:20:19;;;;;;;23.97;14.60;;;1.90;99.90;;;;;;5896425;24;20363;-81
2021/01/09 00:22:45;;;;;;;21.33;14.27;;;1.90;99.90;;;;;;5897367;24;20390;-81
2021/01/09 00:25:13;;;;;;;23.83;13.37;;;1.90;99.90;;;;;;5943151;24;20510;-81
2021/01/09 00:27:39;;;;;;;19.43;13.73;;;1.90;99.90;;;;;;5941989;24;20191;-81
2021/01/09 00:30:06;;;;;;;18.17;14.00;;;2.00;99.90;;;;;;5897427;24;20964;-81
2021/01/09 00:32:32;;;;;;;21.60;13.87;;;2.00;99.90;;;;;;5919686;24;20352;-81
2021/01/09 00:34:58;;;;;;;19.80;14.53;;;2.00;99.90;;;;;;5919263;24;20351;-81
2021/01/09 00:37:27;;;;;;;21.43;13.07;;;2.00;99.90;;;;;;5918389;24;20364;-81
2021/01/09 00:39:53;;;;;;;20.67;14.43;;;1.80;99.90;;;;;;5963456;23;20188;-81
2021/01/09 00:42:19;;;;;;;21.70;13.03;;;1.80;99.90;;;;;;6045484;23;20363;-81
2021/01/09 00:44:44;;;;;;;21.47;13.30;;;1.90;99.90;;;;;;6140990;23;20174;-81
2021/01/09 00:47:10;;;;;;;17.13;13.77;;;1.90;99.90;;;;;;6156775;23;20186;-81
2021/01/09 00:49:36;;;;;;;19.27;12.20;;;1.90;99.90;;;;;;6182226;23;20542;-81
2021/01/09 00:52:01;;;;;;;18.70;12.13;;;1.90;99.90;;;;;;6184124;23;20166;-80
2021/01/09 00:54:27;;;;;;;19.93;14.43;;;1.80;99.90;;;;;;6158688;23;20314;-80
2021/01/09 00:56:53;;;;;;;17.13;12.90;;;1.90;99.90;;;;;;6183481;23;20189;-80
2021/01/09 00:59:20;;;;;;;21.67;13.33;;;1.90;99.90;;;;;;6207778;23;20163;-81
2021/01/09 01:01:48;;;;;;;20.17;13.00;;;2.00;99.90;;;;;;6183885;23;20397;-81
2021/01/09 01:04:14;;;;;;;21.87;13.50;;;2.00;99.90;;;;;;6184642;23;20303;-81
2021/01/09 01:06:39;;;;;;;21.50;12.30;;;2.10;99.90;;;;;;6158627;23;20378;-81
2021/01/09 01:09:05;;;;;;;20.80;13.17;;;1.90;99.90;;;;;;6158667;23;20173;-81
2021/01/09 01:11:32;;;;;;;25.07;17.20;;;1.90;99.90;;;;;;6156177;23;20174;-80
2021/01/09 01:13:59;;;;;;;23.27;14.93;;;2.00;99.90;;;;;;6180011;23;20170;-80
2021/01/09 01:16:25;;;;;;;23.60;16.53;;;2.00;99.90;;;;;;6154761;23;20360;-80
2021/01/09 01:18:51;;;;;;;27.57;15.23;;;2.00;99.90;;;;;;6177426;23;20427;-79
2021/01/09 01:21:17;;;;;;;24.63;17.30;;;2.00;99.90;;;;;;6205057;23;20306;-79
2021/01/09 01:23:44;;;;;;;30.27;16.60;;;2.00;99.90;;;;;;6155426;23;20749;-81
2021/01/09 01:26:13;;;;;;;28.33;16.70;;;2.00;99.90;;;;;;6236783;23;20841;-81
2021/01/09 01:28:40;;;;;;;34.40;17.53;;;2.00;99.90;;;;;;6134094;23;20463;-81
2021/01/09 01:31:10;;;;;;;26.30;16.70;;;2.00;99.90;;;;;;6183130;23;20414;-81
2021/01/09 01:33:43;;;;;;;30.50;18.20;;;2.00;99.90;;;;;;6160139;23;20303;-81
2021/01/09 01:36:11;;;;;;;32.50;19.93;;;2.10;99.90;;;;;;6159074;23;20367;-80
2021/01/09 01:38:37;;;;;;;41.50;19.00;;;2.00;99.90;;;;;;6181586;23;20332;-80
2021/01/09 01:41:08;;;;;;;33.40;19.30;;;2.00;99.90;;;;;;6209605;23;20361;-80
2021/01/09 01:43:37;;;;;;;34.97;21.50;;;1.90;99.90;;;;;;6185578;23;20334;-80
2021/01/09 01:46:04;;;;;;;28.37;18.13;;;1.90;99.90;;;;;;6185894;23;20333;-80
2021/01/09 01:48:31;;;;;;;36.27;18.83;;;1.90;99.90;;;;;;6210691;23;20335;-82
2021/01/09 01:50:57;;;;;;;35.23;19.47;;;1.90;99.90;;;;;;6184827;23;20368;-80
2021/01/09 01:53:23;;;;;;;35.10;19.33;;;1.70;99.90;;;;;;6209952;23;21029;-82
2021/01/09 01:55:50;;;;;;;32.73;19.10;;;1.70;99.90;;;;;;6236947;23;20342;-82
2021/01/09 01:58:17;;;;;;;29.70;18.30;;;1.80;99.90;;;;;;6184880;23;20401;-82
2021/01/09 02:00:47;;;;;;;32.30;19.20;;;1.80;99.90;;;;;;6185290;23;20448;-82
2021/01/09 02:03:15;;;;;;;27.67;18.57;;;1.80;99.90;;;;;;6209563;23;20570;-82
2021/01/09 02:05:47;;;;;;;36.13;19.03;;;1.80;99.90;;;;;;6185155;23;20343;-82
2021/01/09 02:08:16;;;;;;;28.33;18.17;;;1.70;99.90;;;;;;6182671;23;20328;-81
2021/01/09 02:10:45;;;;;;;29.53;19.13;;;1.60;99.90;;;;;;6185864;23;20419;-81
2021/01/09 02:13:23;;;;;;;32.67;18.53;;;1.60;99.90;;;;;;6206609;23;20323;-82
2021/01/09 02:15:50;;;;;;;35.13;19.50;;;1.60;99.90;;;;;;6160123;23;20420;-78
2021/01/09 02:18:42;;;;;;;32.43;21.03;;;1.60;99.90;;;;;;6110526;23;21208;-78
2021/01/09 02:21:18;;;;;;;34.53;20.03;;;1.50;99.90;;;;;;6076879;23;20448;-78
2021/01/09 02:24:16;;;;;;;33.73;20.13;;;1.50;99.90;;;;;;6076794;23;20372;-79
2021/01/09 02:26:43;;;;;;;32.27;18.33;;;1.50;99.90;;;;;;5990083;23;20391;-79
2021/01/09 02:29:10;;;;;;;38.17;21.37;;;1.50;99.90;;;;;;5989640;23;20881;-79
2021/01/09 02:31:49;;;;;;;32.00;18.87;;;1.50;99.90;;;;;;6013914;23;20435;-79
2021/01/09 02:34:43;;;;;;;32.93;18.63;;;1.50;99.90;;;;;;5990866;23;20366;-79
2021/01/09 02:37:09;;;;;;;38.43;20.13;;;1.50;99.90;;;;;;5956612;24;20608;-78
2021/01/09 02:39:35;;;;;;;30.47;20.77;;;1.50;99.90;;;;;;5934654;24;20852;-79
2021/01/09 02:42:04;;;;;;;34.40;21.13;;;1.50;99.90;;;;;;5958116;24;20681;-78
2021/01/09 02:44:57;;;;;;;35.93;21.07;;;1.50;99.90;;;;;;5912335;24;20347;-78
2021/01/09 02:47:22;;;;;;;30.90;20.20;;;1.60;99.90;;;;;;5928705;24;20442;-78
2021/01/09 02:49:48;;;;;;;29.80;18.67;;;1.60;99.90;;;;;;5906442;24;20438;-78
2021/01/09 02:52:41;;;;;;;29.73;18.53;;;1.60;99.90;;;;;;5906590;24;20185;-78
2021/01/09 02:55:08;;;;;;;25.33;18.60;;;1.50;99.90;;;;;;5849116;24;20250;-78
2021/01/09 02:57:35;;;;;;;24.80;16.70;;;1.40;99.90;;;;;;5855479;24;20827;-79
2021/01/09 03:00:03;;;;;;;31.60;17.73;;;1.40;99.90;;;;;;5876287;24;20467;-79
2021/01/09 03:02:29;;;;;;;28.10;17.37;;;1.50;99.90;;;;;;5896784;24;20472;-79
2021/01/09 03:04:54;;;;;;;27.40;18.50;;;1.40;99.90;;;;;;5890191;24;20407;-79
2021/01/09 03:07:20;;;;;;;33.87;18.50;;;1.50;99.90;;;;;;5888452;24;20585;-79
2021/01/09 03:09:46;;;;;;;27.67;16.60;;;1.50;99.90;;;;;;5889010;24;20556;-78
2021/01/09 03:12:11;;;;;;;27.70;18.13;;;1.50;99.90;;;;;;5888974;24;20207;-79
2021/01/09 03:14:39;;;;;;;24.73;16.87;;;1.50;99.90;;;;;;5956436;23;20540;-79
2021/01/09 03:17:05;;;;;;;31.10;17.83;;;1.50;99.90;;;;;;5965697;23;20244;-79
2021/01/09 03:19:59;;;;;;;29.60;16.97;;;1.50;99.90;;;;;;5921646;23;20409;-79
2021/01/09 03:22:25;;;;;;;25.10;15.57;;;1.50;99.90;;;;;;5879012;24;20687;-78
2021/01/09 03:25:17;;;;;;;26.57;16.17;;;1.50;99.90;;;;;;5921722;24;20392;-78
2021/01/09 03:27:43;;;;;;;21.60;14.70;;;1.50;99.90;;;;;;5905102;24;20368;-78
2021/01/09 03:30:35;;;;;;;23.93;15.60;;;1.60;99.90;;;;;;5930132;24;20739;-79
2021/01/09 03:33:31;;;;;;;28.43;14.73;;;1.60;99.90;;;;;;5927612;24;20621;-79
2021/01/09 03:35:57;;;;;;;26.20;16.40;;;1.60;99.90;;;;;;5853284;24;20873;-79
2021/01/09 03:38:49;;;;;;;27.77;17.27;;;1.60;99.90;;;;;;5830284;24;20466;-79
2021/01/09 03:41:15;;;;;;;23.03;15.63;;;1.50;99.90;;;;;;5742925;24;20189;-79
2021/01/09 03:44:14;;;;;;;23.37;15.43;;;1.50;99.90;;;;;;5722068;25;20471;-79
2021/01/09 03:46:40;;;;;;;30.90;18.53;;;1.40;99.90;;;;;;5743288;24;20377;-79
2021/01/09 03:49:05;;;;;;;33.93;17.77;;;1.40;99.90;;;;;;5721228;25;20416;-79
2021/01/09 03:51:31;;;;;;;34.00;18.80;;;1.50;99.90;;;;;;5722051;25;20275;-79
2021/01/09 03:53:56;;;;;;;34.30;20.87;;;1.60;99.90;;;;;;5700271;25;20190;-79
2021/01/09 03:56:51;;;;;;;30.87;19.87;;;1.60;99.90;;;;;;5700731;25;20245;-79
2021/01/09 03:59:19;;;;;;;48.23;16.87;;;1.60;99.90;;;;;;5624933;25;20188;-78
2021/01/09 04:01:45;;;;;;;26.10;16.70;;;1.60;99.90;;;;;;5645568;25;20378;-79
2021/01/09 04:04:40;;;;;;;28.00;17.60;;;1.60;99.90;;;;;;5633306;25;20751;-79
2021/01/09 04:07:06;;;;;;;28.37;18.87;;;1.60;99.90;;;;;;5665439;25;20699;-79
2021/01/09 04:09:33;;;;;;;25.27;17.57;;;1.60;99.90;;;;;;5654881;25;20407;-78
2021/01/09 04:12:00;;;;;;;27.53;16.60;;;1.70;99.90;;;;;;5718595;24;20873;-79
2021/01/09 04:14:27;;;;;;;25.23;18.73;;;1.70;99.90;;;;;;5768857;24;21238;-79
2021/01/09 04:16:52;;;;;;;26.13;18.90;;;1.60;99.90;;;;;;5747914;24;20404;-79
2021/01/09 04:19:18;;;;;;;28.67;17.63;;;1.60;99.90;;;;;;5847691;24;20380;-79
2021/01/09 04:21:54;;;;;;;28.83;19.87;;;1.70;99.90;;;;;;5855534;24;20248;-79
2021/01/09 04:24:21;;;;;;;29.70;19.70;;;1.70;99.90;;;;;;5958036;24;20187;-79
2021/01/09 04:26:58;;;;;;;37.00;20.00;;;1.70;99.90;;;;;;5957033;24;20858;-78
2021/01/09 04:29:27;;;;;;;32.47;18.00;;;1.70;99.90;;;;;;5958295;24;20351;-79
2021/01/09 04:32:29;;;;;;;38.30;20.63;;;1.70;99.90;;;;;;5958607;24;20392;-79
2021/01/09 04:34:58;;;;;;;35.33;20.47;;;1.70;99.90;;;;;;5902561;24;20333;-79
2021/01/09 04:37:23;;;;;;;36.30;18.93;;;1.80;99.90;;;;;;5833101;24;20374;-79
2021/01/09 04:39:49;;;;;;;31.47;18.83;;;1.80;99.90;;;;;;5880042;24;20846;-79
2021/01/09 04:42:41;;;;;;;27.37;17.77;;;1.80;99.90;;;;;;5835101;24;20193;-79
2021/01/09 04:45:10;;;;;;;26.20;17.70;;;1.80;99.90;;;;;;5908156;24;20200;-78
2021/01/09 04:48:06;;;;;;;30.47;18.13;;;1.70;99.90;;;;;;5860441;24;20409;-79
2021/01/09 04:50:58;;;;;;;28.77;19.47;;;1.50;99.90;;;;;;5826411;24;20908;-79
2021/01/09 04:53:25;;;;;;;35.20;21.20;;;1.50;99.90;;;;;;5746889;24;20470;-79
2021/01/09 04:56:18;;;;;;;42.97;24.23;;;1.50;99.90;;;;;;5746884;24;20917;-79
2021/01/09 04:59:12;;;;;;;49.53;26.10;;;1.50;99.90;;;;;;5746763;24;20375;-79
2021/01/09 05:01:41;;;;;;;44.50;23.13;;;1.60;99.90;;;;;;5674080;25;20471;-79
2021/01/09 05:04:08;;;;;;;61.13;25.17;;;1.60;99.90;;;;;;5696170;25;20576;-79
2021/01/09 05:06:39;;;;;;;48.50;26.40;;;1.60;99.90;;;;;;5695188;25;20420;-78
2021/01/09 05:09:06;;;;;;;45.50;24.17;;;1.70;99.90;;;;;;5645450;25;20458;-79
2021/01/09 05:11:40;;;;;;;49.23;25.23;;;1.70;99.90;;;;;;5686334;25;20394;-79
2021/01/09 05:14:09;;;;;;;43.17;25.67;;;1.60;99.90;;;;;;5687191;25;20410;-79
2021/01/09 05:16:36;;;;;;;47.90;26.00;;;1.60;99.90;;;;;;5686798;25;20543;-78
2021/01/09 05:19:29;;;;;;;46.80;25.00;;;1.70;99.90;;;;;;5665241;25;20414;-78
2021/01/09 05:21:56;;;;;;;48.50;25.47;;;1.70;99.90;;;;;;5729630;25;20472;-78
2021/01/09 05:24:24;;;;;;;44.20;23.10;;;1.80;99.90;;;;;;5699798;25;20363;-79
2021/01/09 05:26:50;;;;;;;39.77;23.23;;;1.80;99.90;;;;;;5768942;24;20467;-79
2021/01/09 05:29:17;;;;;;;42.97;25.03;;;1.80;99.90;;;;;;5828303;24;20371;-79
2021/01/09 05:32:10;;;;;;;44.53;23.53;;;1.90;99.90;;;;;;5829135;24;20375;-78
2021/01/09 05:34:49;;;;;;;42.40;23.30;;;1.80;99.90;;;;;;5775652;24;20444;-78
2021/01/09 05:37:21;;;;;;;34.90;21.60;;;1.80;99.90;;;;;;5797712;24;20492;-78
2021/01/09 05:39:55;;;;;;;39.70;22.93;;;1.80;99.90;;;;;;5856279;24;20707;-78
2021/01/09 05:42:27;;;;;;;42.27;23.07;;;1.90;99.90;;;;;;5878544;24;21501;-78
2021/01/09 05:45:24;;;;;;;39.33;20.67;;;1.90;99.90;;;;;;5856496;24;20851;-78
2021/01/09 05:47:51;;;;;;;37.10;21.60;;;1.90;99.90;;;;;;5793503;24;20396;-78
2021/01/09 05:50:43;;;;;;;39.90;19.93;;;1.90;99.90;;;;;;5794464;24;20358;-78
2021/01/09 05:53:40;;;;;;;36.77;18.17;;;1.90;99.90;;;;;;5750324;24;20361;-78
2021/01/09 05:56:10;;;;;;;30.50;20.27;;;1.90;99.90;;;;;;5795416;24;20384;-78
2021/01/09 05:58:36;;;;;;;30.50;19.47;;;1.80;99.90;;;;;;5829427;24;20479;-78
2021/01/09 06:01:10;;;;;;;40.03;20.60;;;1.80;99.90;;;;;;5829253;24;20447;-78
2021/01/09 06:03:45;;;;;;;35.57;20.97;;;1.80;99.90;;;;;;5852315;24;20392;-79
2021/01/09 06:06:32;;;;;;;40.77;22.13;;;1.70;99.90;;;;;;5874667;24;20423;-78
2021/01/09 06:09:03;;;;;;;40.03;22.77;;;1.70;99.90;;;;;;5851763;24;20724;-78
2021/01/09 06:11:56;;;;;;;40.20;21.30;;;1.70;99.90;;;;;;5917877;24;20323;-78
2021/01/09 06:14:26;;;;;;;39.30;21.17;;;1.70;99.90;;;;;;5874463;24;20354;-78
2021/01/09 06:16:54;;;;;;;53.60;25.17;;;1.80;99.90;;;;;;5873780;24;20427;-78
2021/01/09 06:19:21;;;;;;;44.20;24.43;;;1.80;99.90;;;;;;5872691;24;20504;-78
2021/01/09 06:21:47;;;;;;;40.77;24.07;;;1.80;99.90;;;;;;5873776;24;20358;-78
2021/01/09 06:24:17;;;;;;;39.60;24.13;;;1.90;99.90;;;;;;5905938;23;20403;-78
2021/01/09 06:26:44;;;;;;;40.13;22.73;;;1.90;99.90;;;;;;5985658;23;20415;-78
2021/01/09 06:29:22;;;;;;;43.87;22.33;;;1.90;99.90;;;;;;5966605;23;20437;-78
2021/01/09 06:32:18;;;;;;;38.43;20.73;;;1.90;99.90;;;;;;6013889;23;20839;-78
2021/01/09 06:35:09;;;;;;;50.23;22.70;;;1.90;99.90;;;;;;5957845;24;20940;-78
2021/01/09 06:37:35;;;;;;;35.63;22.20;;;1.90;99.90;;;;;;5829234;24;20405;-78
2021/01/09 06:40:04;;;;;;;39.00;22.43;;;1.90;99.90;;;;;;5809371;24;20720;-78
2021/01/09 06:42:56;;;;;;;45.13;22.67;;;1.90;99.90;;;;;;5853773;24;20375;-78
2021/01/09 06:45:50;;;;;;;42.40;22.93;;;1.90;99.90;;;;;;5746854;24;20440;-78
2021/01/09 06:48:48;;;;;;;52.60;25.07;;;2.00;99.90;;;;;;5695385;25;20435;-78
2021/01/09 06:51:32;;;;;;;41.00;23.03;;;2.00;99.90;;;;;;5603691;25;20368;-78
2021/01/09 06:54:43;;;;;;;44.90;25.60;;;2.00;99.90;;;;;;5612584;25;20464;-78
2021/01/09 06:57:38;;;;;;;55.00;29.87;;;2.00;99.90;;;;;;5615163;25;20358;-78
2021/01/09 07:00:16;;;;;;;56.63;31.70;;;1.90;99.90;;;;;;5567301;25;20372;-78
2021/01/09 07:02:41;;;;;;;81.47;35.37;;;1.80;99.90;;;;;;5547182;25;20394;-78
2021/01/09 07:05:19;;;;;;;85.37;35.57;;;1.80;99.90;;;;;;5545722;25;20372;-78
2021/01/09 07:11:43;;;;;;;73.80;35.90;;;1.60;99.90;;;;;;5087378;28;20513;-78
2021/01/09 07:14:16;;;;;;;81.27;36.53;;;1.70;99.90;;;;;;5071249;28;20411;-78
2021/01/09 07:17:11;;;;;;;93.30;40.80;;;1.60;99.90;;;;;;5055959;28;20505;-78
2021/01/09 07:19:40;;;;;;;81.43;37.10;;;1.60;99.90;;;;;;4941126;28;20926;-78
2021/01/09 07:22:09;;;;;;;69.00;34.50;;;1.70;99.90;;;;;;4990977;28;20946;-78
2021/01/09 07:24:59;;;;;;;99.27;35.77;;;1.70;99.90;;;;;;4957114;28;20890;-78
2021/01/09 07:27:34;;;;;;;91.30;37.10;;;1.70;99.90;;;;;;4918024;28;20550;-78
2021/01/09 07:30:07;;;;;;;83.27;35.50;;;1.70;99.90;;;;;;4926600;28;20436;-78
2021/01/09 07:32:45;;;;;;;83.63;35.80;;;1.70;99.90;;;;;;4923330;28;20469;-78
2021/01/09 07:35:44;;;;;;;84.90;35.70;;;1.60;99.90;;;;;;4933444;28;20805;-79
2021/01/09 07:38:13;;;;;;;69.00;32.10;;;1.60;99.90;;;;;;4817249;29;20414;-82
2021/01/09 07:40:46;;;;;;;81.80;36.40;;;1.60;99.90;;;;;;4819373;29;20426;-81
2021/01/09 07:47:00;;;;;;;73.93;34.60;;;1.70;99.90;;;;;;4784939;29;20399;-78
2021/01/09 07:49:29;;;;;;;87.13;37.07;;;1.70;99.90;;;;;;4770520;29;20432;-78
2021/01/09 07:51:59;;;;;;;74.30;33.50;;;1.70;99.90;;;;;;4786330;29;21179;-78
2021/01/09 07:55:05;;;;;;;69.80;35.43;;;1.70;99.90;;;;;;4779795;29;20431;-79
2021/01/09 07:57:30;;;;;;;84.43;36.13;;;1.80;99.90;;;;;;4813540;29;20386;-79
2021/01/09 07:59:56;;;;;;;68.50;35.73;;;1.80;99.90;;;;;;4804301;29;20490;-79
2021/01/09 08:02:39;;;;;;;65.63;32.77;;;1.90;99.90;;;;;;4801718;29;20427;-79
2021/01/09 08:05:17;;;;;;;65.50;33.37;;;1.80;99.90;;;;;;4892370;29;20221;-79
2021/01/09 08:07:48;;;;;;;68.33;30.43;;;1.80;99.90;;;;;;4898411;29;20478;-79
2021/01/09 08:10:25;;;;;;;74.47;35.43;;;1.90;99.90;;;;;;4878513;29;21022;-79
2021/01/09 08:13:07;;;;;;;81.67;35.57;;;2.00;99.90;;;;;;4915938;28;20407;-78
2021/01/09 08:15:34;;;;;;;64.53;31.17;;;1.80;99.90;;;;;;4979550;28;20414;-79
2021/01/09 08:18:06;;;;;;;82.17;32.07;;;1.90;99.90;;;;;;4961713;28;20471;-79
2021/01/09 08:20:33;;;;;;;71.37;33.23;;;1.90;99.90;;;;;;4967928;28;20403;-79
2021/01/09 08:23:25;;;;;;;59.47;28.77;;;1.90;99.90;;;;;;4959013;28;20477;-78
2021/01/09 08:25:53;;;;;;;59.90;30.33;;;2.00;99.90;;;;;;4910955;28;21040;-79
2021/01/09 08:28:22;;;;;;;59.97;29.13;;;2.10;99.90;;;;;;4900404;28;20984;-79
2021/01/09 08:30:48;;;;;;;70.80;33.40;;;2.10;99.90;;;;;;4954216;28;20971;-79
2021/01/09 08:33:16;;;;;;;72.23;31.80;;;2.00;99.90;;;;;;4951639;28;20793;-79
2021/01/09 08:35:50;;;;;;;78.80;35.20;;;2.00;99.90;;;;;;4971114;28;20423;-79
2021/01/09 08:38:27;;;;;;;81.80;39.83;;;2.00;99.90;;;;;;4987433;28;20775;-79
2021/01/09 08:40:59;;;;;;;83.77;36.97;;;2.00;99.90;;;;;;4953899;28;20425;-78
2021/01/09 08:43:25;;;;;;;81.93;35.23;;;2.00;99.90;;;;;;4989071;28;20424;-80
2021/01/09 08:45:53;;;;;;;76.43;36.20;;;2.00;99.90;;;;;;4957801;28;20462;-79
2021/01/09 08:48:24;;;;;;;87.07;36.77;;;2.00;99.90;;;;;;4935007;28;20390;-79
2021/01/09 08:50:57;;;;;;;85.13;38.07;;;2.20;99.90;;;;;;4949902;28;20898;-79
2021/01/09 08:53:28;;;;;;;95.23;39.17;;;2.30;99.90;;;;;;4966776;28;20390;-79
2021/01/09 08:56:01;;;;;;;95.87;39.53;;;2.40;99.90;;;;;;4950205;28;20410;-79
2021/01/09 08:58:29;;;;;;;74.30;35.67;;;2.40;99.90;;;;;;4958698;28;20576;-79
2021/01/09 09:00:57;;;;;;;81.27;37.57;;;2.40;99.90;;;;;;4940808;28;20485;-79
2021/01/09 09:03:25;;;;;;;85.93;39.43;;;2.40;99.90;;;;;;5042845;28;20432;-79
2021/01/09 09:05:51;;;;;;;91.90;37.50;;;2.40;99.90;;;;;;5042255;28;20536;-78
2021/01/09 09:08:18;;;;;;;84.60;37.73;;;2.50;99.90;;;;;;5037254;28;20881;-78
2021/01/09 09:10:47;;;;;;;76.53;37.60;;;2.50;99.90;;;;;;5040048;28;20428;-78
2021/01/09 09:13:19;;;;;;;98.60;38.90;;;2.40;99.90;;;;;;5026350;28;20452;-78
2021/01/09 09:15:46;;;;;;;77.80;37.97;;;2.20;99.90;;;;;;5024260;28;20494;-79
2021/01/09 09:18:12;;;;;;;80.63;35.37;;;2.30;99.90;;;;;;5026223;28;20417;-78
2021/01/09 09:20:43;;;;;;;84.27;42.03;;;2.30;99.90;;;;;;5032852;28;20411;-78
2021/01/09 09:23:23;;;;;;;71.50;40.47;;;2.20;99.90;;;;;;5045011;28;20887;-78
2021/01/09 09:26:12;;;;;;;65.23;34.37;;;2.20;99.90;;;;;;5061439;28;20396;-78
2021/01/09 09:28:52;;;;;;;73.80;34.83;;;2.50;99.90;;;;;;5032948;28;20389;-78
2021/01/09 09:31:28;;;;;;;84.03;38.37;;;2.40;99.90;;;;;;5061540;28;20903;-78
2021/01/09 09:33:59;;;;;;;61.53;34.53;;;2.50;99.90;;;;;;5046488;28;20565;-78
2021/01/09 09:36:25;;;;;;;62.70;30.13;;;2.50;99.90;;;;;;5069310;28;20396;-78
2021/01/09 09:38:52;;;;;;;63.13;30.87;;;2.40;99.90;;;;;;5038872;28;21083;-78
2021/01/09 09:41:18;;;;;;;58.80;31.50;;;2.60;99.90;;;;;;5037545;28;20435;-78
2021/01/09 09:43:58;;;;;;;59.80;29.43;;;2.50;99.90;;;;;;5055161;28;20854;-78
2021/01/09 09:46:26;;;;;;;65.00;31.40;;;2.50;99.90;;;;;;5041169;28;20405;-78
2021/01/09 09:48:59;;;;;;;56.43;31.40;;;2.40;99.90;;;;;;5037697;28;20392;-78
2021/01/09 09:51:34;;;;;;;50.40;28.50;;;2.50;99.90;;;;;;5043043;28;20436;-78
2021/01/09 09:54:00;;;;;;;54.30;30.13;;;2.60;99.90;;;;;;5059145;28;20443;-78
2021/01/09 09:56:40;;;;;;;55.50;28.40;;;2.40;99.90;;;;;;5042953;28;20396;-78
2021/01/09 09:59:09;;;;;;;46.50;28.07;;;2.30;99.90;;;;;;5043113;28;20902;-78
2021/01/09 10:01:36;;;;;;;47.80;26.60;;;2.30;99.90;;;;;;5081442;28;20781;-78
2021/01/09 10:04:05;;;;;;;51.50;25.40;;;2.30;99.90;;;;;;5073221;28;20384;-78
2021/01/09 10:06:39;;;;;;;49.90;25.43;;;2.40;99.90;;;;;;5014194;28;20436;-78
2021/01/09 10:09:17;;;;;;;38.10;24.30;;;2.30;99.90;;;;;;5031303;28;20401;-78
2021/01/09 10:11:44;;;;;;;46.60;26.07;;;2.30;99.90;;;;;;5037543;28;20453;-78
2021/01/09 10:14:15;;;;;;;36.17;22.70;;;2.30;99.90;;;;;;5052023;28;20416;-78
2021/01/09 10:16:43;;;;;;;41.50;23.50;;;2.20;99.90;;;;;;5044055;28;20453;-78
2021/01/09 10:19:11;;;;;;;44.20;23.10;;;2.20;99.90;;;;;;5037997;28;20915;-78
2021/01/09 10:21:38;;;;;;;43.53;24.80;;;2.20;99.90;;;;;;5009046;28;20455;-78
2021/01/09 10:24:04;;;;;;;48.93;27.00;;;2.30;99.90;;;;;;5050503;28;20503;-78
2021/01/09 10:26:55;;;;;;;46.47;26.30;;;2.30;99.90;;;;;;5021181;28;21009;-78
2021/01/09 10:29:22;;;;;;;38.10;21.40;;;2.30;99.90;;;;;;5007909;28;20369;-78
2021/01/09 10:31:49;;;;;;;44.00;24.33;;;2.40;99.90;;;;;;4975852;28;20397;-78
2021/01/09 10:34:14;;;;;;;55.83;26.87;;;2.60;99.90;;;;;;4989279;28;20499;-78
2021/01/09 10:37:06;;;;;;;57.53;33.53;;;2.50;99.90;;;;;;5007836;28;20426;-78
2021/01/09 10:40:01;;;;;;;59.90;29.90;;;2.40;99.90;;;;;;4940954;28;20235;-78
2021/01/09 10:42:30;;;;;;;44.03;26.70;;;2.40;99.90;;;;;;4920911;29;20396;-79
2021/01/09 10:44:56;;;;;;;51.80;28.90;;;2.50;99.90;;;;;;4899129;29;21011;-79
2021/01/09 10:47:22;;;;;;;51.60;30.50;;;2.60;99.90;;;;;;4916851;28;20409;-79
2021/01/09 10:49:49;;;;;;;56.80;28.97;;;2.60;99.90;;;;;;4916855;28;20727;-79
2021/01/09 10:52:15;;;;;;;51.53;25.87;;;2.70;99.90;;;;;;4914516;29;20410;-79
2021/01/09 10:54:41;;;;;;;41.27;26.43;;;2.90;99.90;;;;;;4913180;28;23062;-79
2021/01/09 10:57:08;;;;;;;34.17;22.90;;;2.80;99.90;;;;;;4925847;28;20520;-78
2021/01/09 10:59:34;;;;;;;32.43;19.60;;;2.60;99.90;;;;;;4905427;28;20321;-79
2021/01/09 11:02:04;;;;;;;31.93;19.40;;;2.60;99.90;;;;;;4873296;29;20405;-79
2021/01/09 11:04:30;;;;;;;35.90;19.13;;;2.80;99.90;;;;;;4939980;28;20474;-79
2021/01/09 11:06:59;;;;;;;41.07;24.73;;;2.70;99.90;;;;;;4926560;28;20784;-79
2021/01/09 11:09:25;;;;;;;36.33;22.57;;;2.80;99.90;;;;;;4934363;28;20423;-79
2021/01/09 11:11:51;;;;;;;36.37;20.60;;;2.90;99.90;;;;;;4917039;28;21049;-78
2021/01/09 11:14:19;;;;;;;30.90;19.10;;;2.90;99.90;;;;;;4906769;28;20419;-78
2021/01/09 11:17:14;;;;;;;33.50;21.43;;;2.90;99.90;;;;;;4934161;28;20262;-78
2021/01/09 11:20:07;;;;;;;31.77;20.37;;;2.90;99.90;;;;;;4983547;28;21166;-78
2021/01/09 11:22:59;;;;;;;28.03;18.37;;;3.00;99.90;;;;;;4894492;29;20505;-79
2021/01/09 11:25:26;;;;;;;33.27;19.60;;;3.20;99.90;;;;;;4845008;29;20426;-79
2021/01/09 11:27:51;;;;;;;30.67;18.30;;;3.20;99.90;;;;;;4826760;29;20438;-78
2021/01/09 11:30:17;;;;;;;37.73;20.20;;;2.90;99.90;;;;;;4841790;29;20434;-79
2021/01/09 11:32:43;;;;;;;35.90;20.77;;;2.80;99.90;;;;;;4829651;29;20260;-79
2021/01/09 11:35:38;;;;;;;39.97;19.70;;;2.60;99.90;;;;;;4818000;29;20614;-79
2021/01/09 11:38:29;;;;;;;34.33;22.37;;;2.40;99.90;;;;;;4781213;29;20250;-79
2021/01/09 11:40:56;;;;;;;45.33;21.20;;;2.40;99.90;;;;;;4760408;30;20407;-79
2021/01/09 11:43:21;;;;;;;40.23;21.93;;;2.50;99.90;;;;;;4754986;30;20402;-79
2021/01/09 11:45:47;;;;;;;37.00;20.93;;;2.70;99.90;;;;;;4729281;30;20406;-79
2021/01/09 11:48:13;;;;;;;43.57;21.77;;;2.70;99.90;;;;;;4751927;29;20232;-79
2021/01/09 11:50:43;;;;;;;36.30;19.33;;;2.70;99.90;;;;;;4767076;30;20295;-79
2021/01/09 11:53:09;;;;;;;30.80;18.67;;;2.70;99.90;;;;;;4766824;29;20244;-79
2021/01/09 11:55:36;;;;;;;30.40;19.17;;;2.70;99.90;;;;;;4728980;29;20782;-80
2021/01/09 11:58:02;;;;;;;36.37;20.30;;;2.70;99.90;;;;;;4764928;29;20296;-80
2021/01/09 12:00:29;;;;;;;50.70;25.90;;;2.80;99.90;;;;;;4852760;29;20397;-80
2021/01/09 12:03:23;;;;;;;42.63;23.73;;;2.70;99.90;;;;;;4883650;29;20401;-80
2021/01/09 12:05:49;;;;;;;53.30;28.83;;;2.40;99.90;;;;;;4866967;29;21155;-80
2021/01/09 12:08:16;;;;;;;64.20;36.27;;;2.20;99.90;;;;;;4840102;29;20442;-80
2021/01/09 12:10:42;;;;;;;50.73;27.37;;;2.20;99.90;;;;;;4839588;29;20435;-80
2021/01/09 12:13:09;;;;;;;47.10;24.70;;;2.30;99.90;;;;;;4841920;29;20521;-79
2021/01/09 12:15:36;;;;;;;56.60;26.17;;;2.40;99.90;;;;;;4916904;28;20408;-81
2021/01/09 12:18:34;;;;;;;47.80;25.40;;;2.50;99.90;;;;;;4883408;28;22072;-80
2021/01/09 12:21:00;;;;;;;47.33;25.60;;;2.70;99.90;;;;;;4883706;29;20390;-80
2021/01/09 12:23:27;;;;;;;54.20;26.30;;;2.80;99.90;;;;;;4898086;28;20414;-80
2021/01/09 12:25:54;;;;;;;62.23;29.40;;;2.80;99.90;;;;;;4907078;29;20230;-80
2021/01/09 12:28:20;;;;;;;71.60;35.53;;;2.70;99.90;;;;;;4880954;29;20418;-80
2021/01/09 12:31:13;;;;;;;70.27;31.30;;;2.70;99.90;;;;;;4871153;29;20965;-80
2021/01/09 12:34:05;;;;;;;61.43;33.00;;;2.60;99.90;;;;;;4865859;29;20431;-80
2021/01/09 12:36:58;;;;;;;120.17;54.10;;;2.80;99.90;;;;;;4773266;29;20560;-80
2021/01/09 12:39:24;;;;;;;72.37;40.07;;;2.70;99.90;;;;;;4738373;30;21391;-79
2021/01/09 12:41:52;;;;;;;67.30;30.70;;;2.90;99.90;;;;;;4749049;29;20490;-80
2021/01/09 12:44:19;;;;;;;64.93;35.37;;;2.90;99.90;;;;;;4771428;29;20433;-80
2021/01/09 12:46:47;;;;;;;68.87;33.00;;;2.80;99.90;;;;;;4790516;29;20412;-81
2021/01/09 12:49:19;;;;;;;62.23;29.87;;;2.80;99.90;;;;;;4774791;29;20452;-79
2021/01/09 12:51:48;;;;;;;64.50;30.13;;;2.80;99.90;;;;;;4791386;29;20437;-80
2021/01/09 12:54:16;;;;;;;51.60;28.20;;;2.70;99.90;;;;;;4787803;29;21048;-82
2021/01/09 12:56:44;;;;;;;56.80;28.87;;;2.70;99.90;;;;;;4790703;29;20932;-80
2021/01/09 12:59:11;;;;;;;54.00;27.70;;;2.80;99.90;;;;;;4813350;29;20446;-80
2021/01/09 13:01:43;;;;;;;52.40;27.07;;;2.90;99.90;;;;;;4808510;29;20775;-80
2021/01/09 13:04:12;;;;;;;52.40;27.33;;;3.10;99.90;;;;;;4826774;29;20390;-80
2021/01/09 13:06:38;;;;;;;53.63;27.40;;;3.20;99.90;;;;;;4807945;29;20432;-79
2021/01/09 13:09:32;;;;;;;58.13;27.37;;;3.10;99.90;;;;;;4823607;29;20399;-80
2021/01/09 13:11:58;;;;;;;52.77;28.90;;;3.00;99.90;;;;;;4883493;29;20437;-79
2021/01/09 13:14:50;;;;;;;51.63;27.33;;;3.00;99.90;;;;;;4942252;28;20417;-79